sensor_id;sensor_type;location;lat;lon;timestamp;temperature;humidity
43607;DHT22;29197;44.788;10.366;2022-12-17T00:02:29;7.70;99.90
43607;DHT22;29197;44.788;10.366;2022-12-17T00:05:36;7.80;99.90
43607;DHT22;29197;44.788;10.366;2022-12-17T00:08:44;7.80;99.90
43607;DHT22;29197;44.788;10.366;2022-12-17T00:11:50;7.70;99.90
43607;DHT22;29197;44.788;10.366;2022-12-17T00:14:56;7.80;99.90
43607;DHT22;29197;44.788;10.366;2022-12-17T00:18:03;7.80;99.90
43607;DHT22;29197;44.788;10.366;2022-12-17T00:21:10;7.90;99.90
43607;DHT22;29197;44.788;10.366;2022-12-17T00:24:18;7.90;99.90
43607;DHT22;29197;44.788;10.366;2022-12-17T00:27:24;7.70;99.90
43607;DHT22;29197;44.788;10.366;2022-12-17T00:30:31;7.70;99.90
43607;DHT22;29197;44.788;10.366;2022-12-17T00:33:38;7.90;99.90
43607;DHT22;29197;44.788;10.366;2022-12-17T00:36:44;8.00;99.90
43607;DHT22;29197;44.788;10.366;2022-12-17T00:39:52;8.00;99.90
43607;DHT22;29197;44.788;10.366;2022-12-17T00:42:59;8.00;99.90
43607;DHT22;29197;44.788;10.366;2022-12-17T00:46:06;7.90;99.90
43607;DHT22;29197;44.788;10.366;2022-12-17T00:49:13;8.00;99.90
43607;DHT22;29197;44.788;10.366;2022-12-17T00:52:19;7.90;99.90
43607;DHT22;29197;44.788;10.366;2022-12-17T00:55:27;7.90;99.90
43607;DHT22;29197;44.788;10.366;2022-12-17T00:58:34;7.90;99.90
43607;DHT22;29197;44.788;10.366;2022-12-17T01:01:40;7.80;99.90
43607;DHT22;29197;44.788;10.366;2022-12-17T01:04:46;7.80;99.90
43607;DHT22;29197;44.788;10.366;2022-12-17T01:07:52;7.80;99.90
43607;DHT22;29197;44.788;10.366;2022-12-17T01:11:04;7.90;99.90
43607;DHT22;29197;44.788;10.366;2022-12-17T01:14:11;8.10;99.90
43607;DHT22;29197;44.788;10.366;2022-12-17T01:17:17;8.10;99.90
43607;DHT22;29197;44.788;10.366;2022-12-17T01:20:35;8.20;99.90
43607;DHT22;29197;44.788;10.366;2022-12-17T01:23:45;8.20;99.90
43607;DHT22;29197;44.788;10.366;2022-12-17T01:26:52;8.20;99.90
43607;DHT22;29197;44.788;10.366;2022-12-17T01:29:59;8.20;99.90
43607;DHT22;29197;44.788;10.366;2022-12-17T01:33:06;8.10;99.90
43607;DHT22;29197;44.788;10.366;2022-12-17T01:36:13;8.10;99.90
43607;DHT22;29197;44.788;10.366;2022-12-17T01:39:19;8.30;99.90
43607;DHT22;29197;44.788;10.366;2022-12-17T01:42:36;8.40;99.90
43607;DHT22;29197;44.788;10.366;2022-12-17T01:45:43;8.20;99.90
43607;DHT22;29197;44.788;10.366;2022-12-17T01:48:50;8.10;99.90
43607;DHT22;29197;44.788;10.366;2022-12-17T01:51:57;8.10;99.90
43607;DHT22;29197;44.788;10.366;2022-12-17T01:55:05;8.10;99.90
43607;DHT22;29197;44.788;10.366;2022-12-17T01:58:12;7.70;99.90
43607;DHT22;29197;44.788;10.366;2022-12-17T02:01:19;7.70;99.90
43607;DHT22;29197;44.788;10.366;2022-12-17T02:04:26;7.80;99.90
43607;DHT22;29197;44.788;10.366;2022-12-17T02:07:44;7.90;99.90
43607;DHT22;29197;44.788;10.366;2022-12-17T02:10:59;8.00;99.90
43607;DHT22;29197;44.788;10.366;2022-12-17T02:14:17;8.10;99.90
43607;DHT22;29197;44.788;10.366;2022-12-17T02:17:32;8.10;99.90
43607;DHT22;29197;44.788;10.366;2022-12-17T02:20:45;8.10;99.90
43607;DHT22;29197;44.788;10.366;2022-12-17T02:23:58;8.20;99.90
43607;DHT22;29197;44.788;10.366;2022-12-17T02:27:11;8.20;99.90
43607;DHT22;29197;44.788;10.366;2022-12-17T02:30:18;8.20;99.90
43607;DHT22;29197;44.788;10.366;2022-12-17T02:33:25;8.20;99.90
43607;DHT22;29197;44.788;10.366;2022-12-17T02:36:33;8.20;99.90
43607;DHT22;29197;44.788;10.366;2022-12-17T02:39:40;8.20;99.90
43607;DHT22;29197;44.788;10.366;2022-12-17T02:42:48;8.10;99.90
43607;DHT22;29197;44.788;10.366;2022-12-17T02:45:56;8.10;99.90
43607;DHT22;29197;44.788;10.366;2022-12-17T02:49:02;8.10;99.90
43607;DHT22;29197;44.788;10.366;2022-12-17T02:52:09;8.10;99.90
43607;DHT22;29197;44.788;10.366;2022-12-17T02:55:21;8.10;99.90
43607;DHT22;29197;44.788;10.366;2022-12-17T02:58:29;8.10;99.90
43607;DHT22;29197;44.788;10.366;2022-12-17T03:01:36;8.20;99.90
43607;DHT22;29197;44.788;10.366;2022-12-17T03:04:43;8.20;99.90
43607;DHT22;29197;44.788;10.366;2022-12-17T03:08:09;8.20;99.90
43607;DHT22;29197;44.788;10.366;2022-12-17T03:11:15;8.20;99.90
43607;DHT22;29197;44.788;10.366;2022-12-17T03:14:24;8.20;99.90
43607;DHT22;29197;44.788;10.366;2022-12-17T03:17:30;8.30;99.90
43607;DHT22;29197;44.788;10.366;2022-12-17T03:20:37;8.30;99.90
43607;DHT22;29197;44.788;10.366;2022-12-17T03:23:43;8.30;99.90
43607;DHT22;29197;44.788;10.366;2022-12-17T03:26:49;8.30;99.90
43607;DHT22;29197;44.788;10.366;2022-12-17T03:29:57;8.30;99.90
43607;DHT22;29197;44.788;10.366;2022-12-17T03:33:03;8.40;99.90
43607;DHT22;29197;44.788;10.366;2022-12-17T03:36:09;8.40;99.90
43607;DHT22;29197;44.788;10.366;2022-12-17T03:39:15;8.40;99.90
43607;DHT22;29197;44.788;10.366;2022-12-17T03:42:22;8.40;99.90
43607;DHT22;29197;44.788;10.366;2022-12-17T03:45:30;8.40;99.90
43607;DHT22;29197;44.788;10.366;2022-12-17T03:48:36;8.40;99.90
43607;DHT22;29197;44.788;10.366;2022-12-17T03:51:42;8.40;99.90
43607;DHT22;29197;44.788;10.366;2022-12-17T03:54:48;8.40;99.90
43607;DHT22;29197;44.788;10.366;2022-12-17T03:57:55;8.40;99.90
43607;DHT22;29197;44.788;10.366;2022-12-17T04:01:03;8.40;99.90
43607;DHT22;29197;44.788;10.366;2022-12-17T04:04:10;8.40;99.90
43607;DHT22;29197;44.788;10.366;2022-12-17T04:07:16;8.30;99.90
43607;DHT22;29197;44.788;10.366;2022-12-17T04:10:23;8.30;99.90
43607;DHT22;29197;44.788;10.366;2022-12-17T04:13:29;8.20;99.90
43607;DHT22;29197;44.788;10.366;2022-12-17T07:39:28;7.60;99.90
43607;DHT22;29197;44.788;10.366;2022-12-17T07:42:35;7.60;99.90
43607;DHT22;29197;44.788;10.366;2022-12-17T07:45:42;7.60;99.90
43607;DHT22;29197;44.788;10.366;2022-12-17T07:49:02;7.60;99.90
43607;DHT22;29197;44.788;10.366;2022-12-17T07:52:12;7.70;99.90
43607;DHT22;29197;44.788;10.366;2022-12-17T07:55:20;7.70;99.90
43607;DHT22;29197;44.788;10.366;2022-12-17T07:58:26;7.70;99.90
43607;DHT22;29197;44.788;10.366;2022-12-17T08:01:33;7.80;99.90
43607;DHT22;29197;44.788;10.366;2022-12-17T08:04:40;7.80;99.90
43607;DHT22;29197;44.788;10.366;2022-12-17T08:07:56;7.90;99.90
43607;DHT22;29197;44.788;10.366;2022-12-17T08:14:10;8.30;99.90
43607;DHT22;29197;44.788;10.366;2022-12-17T08:17:16;8.50;99.90
43607;DHT22;29197;44.788;10.366;2022-12-17T08:20:19;8.70;99.90
43607;DHT22;29197;44.788;10.366;2022-12-17T08:23:25;8.80;99.90
43607;DHT22;29197;44.788;10.366;2022-12-17T08:26:33;8.80;99.90
43607;DHT22;29197;44.788;10.366;2022-12-17T08:29:40;8.90;99.90
43607;DHT22;29197;44.788;10.366;2022-12-17T08:33:03;8.80;99.90
43607;DHT22;29197;44.788;10.366;2022-12-17T08:36:09;8.80;99.90
43607;DHT22;29197;44.788;10.366;2022-12-17T08:39:16;8.90;99.90
43607;DHT22;29197;44.788;10.366;2022-12-17T08:42:25;9.00;99.90
43607;DHT22;29197;44.788;10.366;2022-12-17T08:45:31;9.10;99.90
43607;DHT22;29197;44.788;10.366;2022-12-17T08:48:37;9.20;99.90
43607;DHT22;29197;44.788;10.366;2022-12-17T08:51:44;9.30;99.90
43607;DHT22;29197;44.788;10.366;2022-12-17T08:54:50;9.60;99.90
43607;DHT22;29197;44.788;10.366;2022-12-17T08:57:58;9.60;99.90
43607;DHT22;29197;44.788;10.366;2022-12-17T09:01:04;9.70;99.90
43607;DHT22;29197;44.788;10.366;2022-12-17T09:04:11;9.80;99.90
43607;DHT22;29197;44.788;10.366;2022-12-17T09:07:17;9.90;99.90
43607;DHT22;29197;44.788;10.366;2022-12-17T09:10:23;10.00;99.90
43607;DHT22;29197;44.788;10.366;2022-12-17T09:13:31;10.20;99.90
43607;DHT22;29197;44.788;10.366;2022-12-17T09:16:38;10.30;99.90
43607;DHT22;29197;44.788;10.366;2022-12-17T09:19:45;10.40;99.90
43607;DHT22;29197;44.788;10.366;2022-12-17T09:22:51;10.60;99.90
43607;DHT22;29197;44.788;10.366;2022-12-17T09:25:57;10.70;99.90
43607;DHT22;29197;44.788;10.366;2022-12-17T09:29:05;10.80;99.90
43607;DHT22;29197;44.788;10.366;2022-12-17T09:32:11;11.00;99.90
43607;DHT22;29197;44.788;10.366;2022-12-17T09:35:17;11.00;99.90
43607;DHT22;29197;44.788;10.366;2022-12-17T09:38:24;11.00;99.90
43607;DHT22;29197;44.788;10.366;2022-12-17T09:41:40;11.10;99.90
43607;DHT22;29197;44.788;10.366;2022-12-17T09:44:57;11.30;99.90
43607;DHT22;29197;44.788;10.366;2022-12-17T09:48:12;11.50;99.90
43607;DHT22;29197;44.788;10.366;2022-12-17T09:51:22;11.70;99.90
43607;DHT22;29197;44.788;10.366;2022-12-17T09:54:32;11.90;99.90
43607;DHT22;29197;44.788;10.366;2022-12-17T09:57:48;11.90;99.90
43607;DHT22;29197;44.788;10.366;2022-12-17T10:00:57;12.20;99.90
43607;DHT22;29197;44.788;10.366;2022-12-17T10:04:05;12.40;99.90
43607;DHT22;29197;44.788;10.366;2022-12-17T10:07:16;12.50;99.90
43607;DHT22;29197;44.788;10.366;2022-12-17T10:10:25;12.50;99.90
43607;DHT22;29197;44.788;10.366;2022-12-17T10:16:44;12.70;99.90
43607;DHT22;29197;44.788;10.366;2022-12-17T10:19:58;12.80;99.90
43607;DHT22;29197;44.788;10.366;2022-12-17T10:23:05;12.90;99.90
43607;DHT22;29197;44.788;10.366;2022-12-17T10:26:26;13.00;99.90
43607;DHT22;29197;44.788;10.366;2022-12-17T10:29:33;13.10;99.90
43607;DHT22;29197;44.788;10.366;2022-12-17T10:32:41;13.20;99.90
43607;DHT22;29197;44.788;10.366;2022-12-17T10:35:48;13.30;99.90
43607;DHT22;29197;44.788;10.366;2022-12-17T10:38:54;13.30;99.90
43607;DHT22;29197;44.788;10.366;2022-12-17T10:42:20;13.40;99.90
43607;DHT22;29197;44.788;10.366;2022-12-17T10:45:28;13.50;99.90
43607;DHT22;29197;44.788;10.366;2022-12-17T10:49:01;13.50;99.90
43607;DHT22;29197;44.788;10.366;2022-12-17T10:52:21;13.60;99.90
43607;DHT22;29197;44.788;10.366;2022-12-17T10:55:30;13.60;99.90
43607;DHT22;29197;44.788;10.366;2022-12-17T10:58:42;13.60;99.90
43607;DHT22;29197;44.788;10.366;2022-12-17T11:01:56;13.60;99.90
43607;DHT22;29197;44.788;10.366;2022-12-17T11:08:18;13.80;99.90
43607;DHT22;29197;44.788;10.366;2022-12-17T11:11:25;13.90;99.90
43607;DHT22;29197;44.788;10.366;2022-12-17T11:14:39;14.10;99.90
43607;DHT22;29197;44.788;10.366;2022-12-17T11:17:49;14.20;99.90
43607;DHT22;29197;44.788;10.366;2022-12-17T11:21:03;14.30;99.90
43607;DHT22;29197;44.788;10.366;2022-12-17T11:24:14;14.40;99.90
43607;DHT22;29197;44.788;10.366;2022-12-17T11:27:24;14.40;99.90
43607;DHT22;29197;44.788;10.366;2022-12-17T11:30:35;14.50;99.90
43607;DHT22;29197;44.788;10.366;2022-12-17T11:33:50;14.50;99.90
43607;DHT22;29197;44.788;10.366;2022-12-17T11:37:05;14.60;99.90
43607;DHT22;29197;44.788;10.366;2022-12-17T11:40:20;14.60;99.90
43607;DHT22;29197;44.788;10.366;2022-12-17T11:43:35;14.60;99.90
43607;DHT22;29197;44.788;10.366;2022-12-17T11:50:01;14.60;99.90
43607;DHT22;29197;44.788;10.366;2022-12-17T11:53:23;14.50;99.90
43607;DHT22;29197;44.788;10.366;2022-12-17T11:56:35;14.30;99.90
43607;DHT22;29197;44.788;10.366;2022-12-17T11:59:47;14.40;99.90
43607;DHT22;29197;44.788;10.366;2022-12-17T12:03:13;14.50;99.90
43607;DHT22;29197;44.788;10.366;2022-12-17T12:06:27;14.20;99.90
43607;DHT22;29197;44.788;10.366;2022-12-17T12:09:44;13.80;99.90
43607;DHT22;29197;44.788;10.366;2022-12-17T12:13:00;13.40;99.90
43607;DHT22;29197;44.788;10.366;2022-12-17T12:16:13;13.10;99.90
43607;DHT22;29197;44.788;10.366;2022-12-17T12:19:34;12.80;99.90
43607;DHT22;29197;44.788;10.366;2022-12-17T12:22:54;12.60;99.90
43607;DHT22;29197;44.788;10.366;2022-12-17T12:26:10;12.40;99.90
43607;DHT22;29197;44.788;10.366;2022-12-17T12:29:24;12.20;99.90
43607;DHT22;29197;44.788;10.366;2022-12-17T12:32:38;12.00;99.90
43607;DHT22;29197;44.788;10.366;2022-12-17T12:35:59;12.00;99.90
43607;DHT22;29197;44.788;10.366;2022-12-17T12:39:11;12.20;99.90
43607;DHT22;29197;44.788;10.366;2022-12-17T12:42:24;12.20;99.90
43607;DHT22;29197;44.788;10.366;2022-12-17T12:45:40;12.20;99.90
43607;DHT22;29197;44.788;10.366;2022-12-17T12:48:53;12.20;99.90
43607;DHT22;29197;44.788;10.366;2022-12-17T12:52:01;12.30;99.90
43607;DHT22;29197;44.788;10.366;2022-12-17T12:55:08;12.30;99.90
43607;DHT22;29197;44.788;10.366;2022-12-17T12:58:26;12.30;99.90
43607;DHT22;29197;44.788;10.366;2022-12-17T13:01:34;12.10;99.90
43607;DHT22;29197;44.788;10.366;2022-12-17T13:04:42;12.00;99.90
43607;DHT22;29197;44.788;10.366;2022-12-17T13:07:48;11.90;99.90
43607;DHT22;29197;44.788;10.366;2022-12-17T13:10:37;11.90;99.90
43607;DHT22;29197;44.788;10.366;2022-12-17T13:13:34;11.80;99.90
43607;DHT22;29197;44.788;10.366;2022-12-17T13:16:34;11.70;99.90
43607;DHT22;29197;44.788;10.366;2022-12-17T13:19:36;11.70;99.90
43607;DHT22;29197;44.788;10.366;2022-12-17T13:22:29;11.80;99.90
43607;DHT22;29197;44.788;10.366;2022-12-17T13:25:21;11.80;99.90
43607;DHT22;29197;44.788;10.366;2022-12-17T13:28:26;11.80;99.90
43607;DHT22;29197;44.788;10.366;2022-12-17T13:31:25;11.80;99.90
43607;DHT22;29197;44.788;10.366;2022-12-17T13:34:18;11.90;99.90
43607;DHT22;29197;44.788;10.366;2022-12-17T13:37:13;12.00;99.90
43607;DHT22;29197;44.788;10.366;2022-12-17T13:40:20;12.00;99.90
43607;DHT22;29197;44.788;10.366;2022-12-17T13:43:17;12.00;99.90
43607;DHT22;29197;44.788;10.366;2022-12-17T13:46:21;12.00;99.90
43607;DHT22;29197;44.788;10.366;2022-12-17T13:49:17;11.90;99.90
43607;DHT22;29197;44.788;10.366;2022-12-17T13:52:15;11.80;99.90
43607;DHT22;29197;44.788;10.366;2022-12-17T13:55:12;11.70;99.90
43607;DHT22;29197;44.788;10.366;2022-12-17T13:58:04;11.70;99.90
43607;DHT22;29197;44.788;10.366;2022-12-17T14:01:06;11.60;99.90
43607;DHT22;29197;44.788;10.366;2022-12-17T14:03:58;11.50;99.90
43607;DHT22;29197;44.788;10.366;2022-12-17T14:06:55;11.50;99.90
43607;DHT22;29197;44.788;10.366;2022-12-17T14:09:47;11.50;99.90
43607;DHT22;29197;44.788;10.366;2022-12-17T14:12:36;11.50;99.90
43607;DHT22;29197;44.788;10.366;2022-12-17T14:15:27;11.50;99.90
43607;DHT22;29197;44.788;10.366;2022-12-17T14:18:19;11.50;99.90
43607;DHT22;29197;44.788;10.366;2022-12-17T14:21:10;11.50;99.90
43607;DHT22;29197;44.788;10.366;2022-12-17T14:24:00;11.50;99.90
43607;DHT22;29197;44.788;10.366;2022-12-17T14:26:50;11.40;99.90
43607;DHT22;29197;44.788;10.366;2022-12-17T14:29:45;11.40;99.90
43607;DHT22;29197;44.788;10.366;2022-12-17T14:32:35;11.30;99.90
43607;DHT22;29197;44.788;10.366;2022-12-17T14:35:26;11.30;99.90
43607;DHT22;29197;44.788;10.366;2022-12-17T14:53:26;11.10;99.90
43607;DHT22;29197;44.788;10.366;2022-12-17T14:56:22;11.00;99.90
43607;DHT22;29197;44.788;10.366;2022-12-17T14:59:25;10.80;99.90
43607;DHT22;29197;44.788;10.366;2022-12-17T15:02:19;10.70;99.90
43607;DHT22;29197;44.788;10.366;2022-12-17T15:05:13;10.60;99.90
43607;DHT22;29197;44.788;10.366;2022-12-17T15:08:03;10.60;99.90
43607;DHT22;29197;44.788;10.366;2022-12-17T15:10:54;10.50;99.90
43607;DHT22;29197;44.788;10.366;2022-12-17T15:13:45;10.50;99.90
43607;DHT22;29197;44.788;10.366;2022-12-17T15:16:42;10.40;99.90
43607;DHT22;29197;44.788;10.366;2022-12-17T15:19:33;10.40;99.90
43607;DHT22;29197;44.788;10.366;2022-12-17T15:22:22;10.40;99.90
43607;DHT22;29197;44.788;10.366;2022-12-17T15:25:12;10.40;99.90
43607;DHT22;29197;44.788;10.366;2022-12-17T15:28:04;10.30;99.90
43607;DHT22;29197;44.788;10.366;2022-12-17T15:30:53;10.30;99.90
43607;DHT22;29197;44.788;10.366;2022-12-17T15:33:42;10.20;99.90
43607;DHT22;29197;44.788;10.366;2022-12-17T15:36:32;10.20;99.90
43607;DHT22;29197;44.788;10.366;2022-12-17T15:39:20;10.10;99.90
43607;DHT22;29197;44.788;10.366;2022-12-17T15:42:10;10.10;99.90
43607;DHT22;29197;44.788;10.366;2022-12-17T15:45:17;10.10;99.90
43607;DHT22;29197;44.788;10.366;2022-12-17T15:48:06;10.00;99.90
43607;DHT22;29197;44.788;10.366;2022-12-17T15:50:55;10.00;99.90
43607;DHT22;29197;44.788;10.366;2022-12-17T15:53:44;10.00;99.90
43607;DHT22;29197;44.788;10.366;2022-12-17T15:56:34;10.00;99.90
43607;DHT22;29197;44.788;10.366;2022-12-17T15:59:23;9.90;99.90
43607;DHT22;29197;44.788;10.366;2022-12-17T16:02:14;9.90;99.90
43607;DHT22;29197;44.788;10.366;2022-12-17T16:05:04;9.90;99.90
43607;DHT22;29197;44.788;10.366;2022-12-17T16:07:53;9.90;99.90
43607;DHT22;29197;44.788;10.366;2022-12-17T16:10:45;9.90;99.90
43607;DHT22;29197;44.788;10.366;2022-12-17T16:13:35;9.90;99.90
43607;DHT22;29197;44.788;10.366;2022-12-17T16:16:25;9.90;99.90
43607;DHT22;29197;44.788;10.366;2022-12-17T16:19:16;9.90;99.90
43607;DHT22;29197;44.788;10.366;2022-12-17T16:22:05;9.90;99.90
43607;DHT22;29197;44.788;10.366;2022-12-17T16:24:55;9.90;99.90
43607;DHT22;29197;44.788;10.366;2022-12-17T16:27:44;9.90;99.90
43607;DHT22;29197;44.788;10.366;2022-12-17T16:30:33;9.90;99.90
43607;DHT22;29197;44.788;10.366;2022-12-17T16:33:22;9.80;99.90
43607;DHT22;29197;44.788;10.366;2022-12-17T16:36:14;9.80;99.90
43607;DHT22;29197;44.788;10.366;2022-12-17T16:39:04;9.80;99.90
43607;DHT22;29197;44.788;10.366;2022-12-17T16:41:53;9.80;99.90
43607;DHT22;29197;44.788;10.366;2022-12-17T16:44:42;9.80;99.90
43607;DHT22;29197;44.788;10.366;2022-12-17T16:47:32;9.80;99.90
43607;DHT22;29197;44.788;10.366;2022-12-17T16:50:20;9.80;99.90
43607;DHT22;29197;44.788;10.366;2022-12-17T16:53:13;9.80;99.90
43607;DHT22;29197;44.788;10.366;2022-12-17T16:56:03;9.80;99.90
43607;DHT22;29197;44.788;10.366;2022-12-17T16:58:52;9.80;99.90
43607;DHT22;29197;44.788;10.366;2022-12-17T17:01:43;9.80;99.90
43607;DHT22;29197;44.788;10.366;2022-12-17T17:04:33;9.80;99.90
43607;DHT22;29197;44.788;10.366;2022-12-17T17:07:23;9.80;99.90
43607;DHT22;29197;44.788;10.366;2022-12-17T17:10:13;9.80;99.90
43607;DHT22;29197;44.788;10.366;2022-12-17T17:13:02;9.80;99.90
43607;DHT22;29197;44.788;10.366;2022-12-17T17:15:51;9.80;99.90
43607;DHT22;29197;44.788;10.366;2022-12-17T17:18:41;9.70;99.90
43607;DHT22;29197;44.788;10.366;2022-12-17T17:21:31;9.70;99.90
43607;DHT22;29197;44.788;10.366;2022-12-17T17:24:22;9.70;99.90
43607;DHT22;29197;44.788;10.366;2022-12-17T17:27:13;9.70;99.90
43607;DHT22;29197;44.788;10.366;2022-12-17T17:30:05;9.70;99.90
43607;DHT22;29197;44.788;10.366;2022-12-17T17:32:54;9.70;99.90
43607;DHT22;29197;44.788;10.366;2022-12-17T17:35:43;9.70;99.90
43607;DHT22;29197;44.788;10.366;2022-12-17T17:38:32;9.70;99.90
43607;DHT22;29197;44.788;10.366;2022-12-17T17:41:24;9.70;99.90
43607;DHT22;29197;44.788;10.366;2022-12-17T17:44:15;9.70;99.90
43607;DHT22;29197;44.788;10.366;2022-12-17T17:47:04;9.70;99.90
43607;DHT22;29197;44.788;10.366;2022-12-17T17:49:53;9.80;99.90
43607;DHT22;29197;44.788;10.366;2022-12-17T17:52:42;9.70;99.90
43607;DHT22;29197;44.788;10.366;2022-12-17T17:55:33;9.70;99.90
43607;DHT22;29197;44.788;10.366;2022-12-17T17:58:22;9.70;99.90
43607;DHT22;29197;44.788;10.366;2022-12-17T18:01:15;9.70;99.90
43607;DHT22;29197;44.788;10.366;2022-12-17T18:04:05;9.80;99.90
43607;DHT22;29197;44.788;10.366;2022-12-17T18:06:55;9.90;99.90
43607;DHT22;29197;44.788;10.366;2022-12-17T18:10:05;9.90;99.90
43607;DHT22;29197;44.788;10.366;2022-12-17T18:12:55;9.80;99.90
43607;DHT22;29197;44.788;10.366;2022-12-17T18:16:01;9.70;99.90
43607;DHT22;29197;44.788;10.366;2022-12-17T18:18:53;9.60;99.90
43607;DHT22;29197;44.788;10.366;2022-12-17T18:21:42;9.40;99.90
43607;DHT22;29197;44.788;10.366;2022-12-17T18:24:31;9.30;99.90
43607;DHT22;29197;44.788;10.366;2022-12-17T18:27:20;9.30;99.90
43607;DHT22;29197;44.788;10.366;2022-12-17T18:33:00;9.40;99.90
43607;DHT22;29197;44.788;10.366;2022-12-17T19:07:16;9.50;99.90
43607;DHT22;29197;44.788;10.366;2022-12-17T19:10:07;9.20;99.90
43607;DHT22;29197;44.788;10.366;2022-12-17T19:12:56;8.90;99.90
43607;DHT22;29197;44.788;10.366;2022-12-17T19:15:46;9.00;99.90
43607;DHT22;29197;44.788;10.366;2022-12-17T19:18:35;9.10;99.90
43607;DHT22;29197;44.788;10.366;2022-12-17T19:21:25;9.20;99.90
43607;DHT22;29197;44.788;10.366;2022-12-17T19:24:16;9.30;99.90
43607;DHT22;29197;44.788;10.366;2022-12-17T19:27:07;9.30;99.90
43607;DHT22;29197;44.788;10.366;2022-12-17T19:29:56;9.30;99.90
43607;DHT22;29197;44.788;10.366;2022-12-17T19:32:45;9.30;99.90
43607;DHT22;29197;44.788;10.366;2022-12-17T19:35:34;9.30;99.90
43607;DHT22;29197;44.788;10.366;2022-12-17T19:38:23;9.30;99.90
43607;DHT22;29197;44.788;10.366;2022-12-17T19:41:13;9.30;99.90
43607;DHT22;29197;44.788;10.366;2022-12-17T19:44:07;9.30;99.90
43607;DHT22;29197;44.788;10.366;2022-12-17T19:46:56;9.30;99.90
43607;DHT22;29197;44.788;10.366;2022-12-17T19:49:46;9.30;99.90
43607;DHT22;29197;44.788;10.366;2022-12-17T19:52:37;9.30;99.90
43607;DHT22;29197;44.788;10.366;2022-12-17T19:55:27;9.30;99.90
43607;DHT22;29197;44.788;10.366;2022-12-17T19:58:16;9.30;99.90
43607;DHT22;29197;44.788;10.366;2022-12-17T20:01:07;9.40;99.90
43607;DHT22;29197;44.788;10.366;2022-12-17T20:03:57;9.30;99.90
43607;DHT22;29197;44.788;10.366;2022-12-17T20:06:46;9.30;99.90
43607;DHT22;29197;44.788;10.366;2022-12-17T20:09:35;9.30;99.90
43607;DHT22;29197;44.788;10.366;2022-12-17T20:12:24;9.30;99.90
43607;DHT22;29197;44.788;10.366;2022-12-17T20:15:14;9.20;99.90
43607;DHT22;29197;44.788;10.366;2022-12-17T20:18:05;9.20;99.90
43607;DHT22;29197;44.788;10.366;2022-12-17T20:21:00;9.20;99.90
43607;DHT22;29197;44.788;10.366;2022-12-17T20:23:49;9.20;99.90
43607;DHT22;29197;44.788;10.366;2022-12-17T20:26:39;9.20;99.90
43607;DHT22;29197;44.788;10.366;2022-12-17T20:29:29;9.20;99.90
43607;DHT22;29197;44.788;10.366;2022-12-17T20:32:18;9.20;99.90
43607;DHT22;29197;44.788;10.366;2022-12-17T20:35:09;9.10;99.90
43607;DHT22;29197;44.788;10.366;2022-12-17T20:37:58;9.10;99.90
43607;DHT22;29197;44.788;10.366;2022-12-17T20:40:47;9.10;99.90
43607;DHT22;29197;44.788;10.366;2022-12-17T20:43:36;9.00;99.90
43607;DHT22;29197;44.788;10.366;2022-12-17T20:46:26;9.00;99.90
43607;DHT22;29197;44.788;10.366;2022-12-17T20:49:15;9.00;99.90
43607;DHT22;29197;44.788;10.366;2022-12-17T20:52:05;9.00;99.90
43607;DHT22;29197;44.788;10.366;2022-12-17T20:54:54;9.00;99.90
43607;DHT22;29197;44.788;10.366;2022-12-17T20:57:42;9.00;99.90
43607;DHT22;29197;44.788;10.366;2022-12-17T21:00:31;9.00;99.90
43607;DHT22;29197;44.788;10.366;2022-12-17T21:03:21;8.90;99.90
43607;DHT22;29197;44.788;10.366;2022-12-17T21:06:11;8.90;99.90
43607;DHT22;29197;44.788;10.366;2022-12-17T21:09:03;8.90;99.90
43607;DHT22;29197;44.788;10.366;2022-12-17T21:11:51;8.90;99.90
43607;DHT22;29197;44.788;10.366;2022-12-17T21:14:41;8.90;99.90
43607;DHT22;29197;44.788;10.366;2022-12-17T21:17:30;8.90;99.90
43607;DHT22;29197;44.788;10.366;2022-12-17T21:20:18;8.90;99.90
43607;DHT22;29197;44.788;10.366;2022-12-17T21:23:09;8.90;99.90
43607;DHT22;29197;44.788;10.366;2022-12-17T21:26:01;8.90;99.90
43607;DHT22;29197;44.788;10.366;2022-12-17T21:28:56;8.90;99.90
43607;DHT22;29197;44.788;10.366;2022-12-17T21:31:47;8.90;99.90
43607;DHT22;29197;44.788;10.366;2022-12-17T21:34:37;8.90;99.90
43607;DHT22;29197;44.788;10.366;2022-12-17T21:37:26;8.90;99.90
43607;DHT22;29197;44.788;10.366;2022-12-17T21:40:15;8.90;99.90
43607;DHT22;29197;44.788;10.366;2022-12-17T21:43:08;8.90;99.90
43607;DHT22;29197;44.788;10.366;2022-12-17T21:45:57;8.90;99.90
43607;DHT22;29197;44.788;10.366;2022-12-17T21:48:47;8.90;99.90
43607;DHT22;29197;44.788;10.366;2022-12-17T21:51:38;9.00;99.90
43607;DHT22;29197;44.788;10.366;2022-12-17T21:54:28;8.90;99.90
43607;DHT22;29197;44.788;10.366;2022-12-17T21:57:17;9.00;99.90
43607;DHT22;29197;44.788;10.366;2022-12-17T22:00:09;9.00;99.90
43607;DHT22;29197;44.788;10.366;2022-12-17T22:02:59;9.00;99.90
43607;DHT22;29197;44.788;10.366;2022-12-17T22:05:48;9.00;99.90
43607;DHT22;29197;44.788;10.366;2022-12-17T22:08:37;9.00;99.90
43607;DHT22;29197;44.788;10.366;2022-12-17T22:11:28;8.90;99.90
43607;DHT22;29197;44.788;10.366;2022-12-17T22:14:17;9.00;99.90
43607;DHT22;29197;44.788;10.366;2022-12-17T22:17:09;8.90;99.90
43607;DHT22;29197;44.788;10.366;2022-12-17T22:19:58;8.90;99.90
43607;DHT22;29197;44.788;10.366;2022-12-17T22:22:47;8.90;99.90
43607;DHT22;29197;44.788;10.366;2022-12-17T22:25:37;8.90;99.90
43607;DHT22;29197;44.788;10.366;2022-12-17T22:28:26;8.90;99.90
43607;DHT22;29197;44.788;10.366;2022-12-17T22:31:17;8.90;99.90
43607;DHT22;29197;44.788;10.366;2022-12-17T22:34:25;8.90;99.90
43607;DHT22;29197;44.788;10.366;2022-12-17T22:37:34;8.90;99.90
43607;DHT22;29197;44.788;10.366;2022-12-17T22:40:45;8.90;99.90
43607;DHT22;29197;44.788;10.366;2022-12-17T22:43:54;8.90;99.90
43607;DHT22;29197;44.788;10.366;2022-12-17T22:47:05;8.90;99.90
43607;DHT22;29197;44.788;10.366;2022-12-17T22:49:56;8.80;99.90
43607;DHT22;29197;44.788;10.366;2022-12-17T22:52:45;8.80;99.90
43607;DHT22;29197;44.788;10.366;2022-12-17T22:55:35;8.80;99.90
43607;DHT22;29197;44.788;10.366;2022-12-17T22:58:25;8.80;99.90
43607;DHT22;29197;44.788;10.366;2022-12-17T23:01:14;8.70;99.90
43607;DHT22;29197;44.788;10.366;2022-12-17T23:04:11;8.70;99.90
43607;DHT22;29197;44.788;10.366;2022-12-17T23:07:02;8.70;99.90
43607;DHT22;29197;44.788;10.366;2022-12-17T23:09:52;8.70;99.90
43607;DHT22;29197;44.788;10.366;2022-12-17T23:12:40;8.80;99.90
43607;DHT22;29197;44.788;10.366;2022-12-17T23:15:38;8.80;99.90
43607;DHT22;29197;44.788;10.366;2022-12-17T23:18:28;8.90;99.90